createdAt,value
2018-06-15T00:00:49.404Z,7.30
2018-06-15T00:03:17.649Z,6.30
2018-06-15T00:05:46.962Z,6.83
2018-06-15T00:08:15.213Z,7.43
2018-06-15T00:10:43.544Z,7.00
2018-06-15T00:13:11.830Z,7.10
2018-06-15T00:15:40.076Z,7.10
2018-06-15T00:18:08.319Z,6.63
2018-06-15T00:20:37.343Z,6.60
2018-06-15T00:23:05.605Z,6.83
2018-06-15T00:25:34.020Z,7.07
2018-06-15T00:28:02.259Z,7.43
2018-06-15T00:30:30.515Z,7.03
2018-06-15T00:32:59.546Z,7.73
2018-06-15T00:35:27.807Z,7.10
2018-06-15T00:37:56.069Z,7.70
2018-06-15T00:40:27.676Z,7.57
2018-06-15T00:42:55.944Z,7.23
2018-06-15T00:45:24.196Z,7.00
2018-06-15T00:47:52.461Z,8.03
2018-06-15T00:50:20.730Z,7.17
2018-06-15T00:52:48.996Z,7.53
2018-06-15T00:55:17.262Z,7.20
2018-06-15T00:57:46.276Z,7.00
2018-06-15T01:00:14.544Z,6.87
2018-06-15T01:02:42.820Z,7.57
2018-06-15T01:05:11.081Z,7.40
2018-06-15T01:07:40.107Z,7.47
2018-06-15T01:10:08.357Z,7.47
2018-06-15T01:12:36.632Z,7.47
2018-06-15T01:15:04.907Z,7.10
2018-06-15T01:17:33.168Z,6.87
2018-06-15T01:20:02.344Z,7.20
2018-06-15T01:22:30.605Z,7.40
2018-06-15T01:24:59.027Z,7.60
2018-06-15T01:27:28.050Z,7.37
2018-06-15T01:29:56.290Z,7.60
2018-06-15T01:32:25.330Z,7.93
2018-06-15T01:34:53.588Z,7.37
2018-06-15T01:37:21.959Z,7.60
2018-06-15T01:39:50.226Z,7.50
2018-06-15T01:42:19.235Z,7.77
2018-06-15T01:44:47.610Z,6.43
2018-06-15T01:47:15.863Z,7.27
2018-06-15T01:49:44.124Z,7.13
2018-06-15T01:52:13.155Z,7.50
2018-06-15T01:54:41.418Z,7.23
2018-06-15T01:57:09.694Z,7.33
2018-06-15T01:59:37.947Z,7.37
2018-06-15T02:02:07.002Z,7.40
2018-06-15T02:04:35.244Z,7.43
2018-06-15T02:07:03.504Z,7.73
2018-06-15T02:09:31.931Z,7.57
2018-06-15T02:12:00.595Z,7.73
2018-06-15T02:14:28.844Z,7.50
2018-06-15T02:16:57.112Z,7.67
2018-06-15T02:19:26.145Z,6.97
2018-06-15T02:21:54.401Z,7.03
2018-06-15T02:24:22.678Z,7.37
2018-06-15T02:26:51.739Z,7.70
2018-06-15T02:29:20.773Z,7.17
2018-06-15T02:31:49.050Z,7.23
2018-06-15T02:34:17.286Z,7.53
2018-06-15T02:36:46.305Z,7.20
2018-06-15T02:39:14.675Z,7.10
2018-06-15T02:41:42.936Z,7.70
2018-06-15T02:44:11.194Z,7.37
2018-06-15T02:46:40.243Z,7.00
2018-06-15T02:49:08.492Z,7.27
2018-06-15T02:51:36.758Z,6.77
2018-06-15T02:54:05.012Z,6.77
2018-06-15T02:56:34.411Z,7.40
2018-06-15T02:59:02.614Z,7.40
2018-06-15T03:01:30.863Z,7.13
2018-06-15T03:03:59.907Z,6.80
2018-06-15T03:06:28.161Z,7.00
2018-06-15T03:08:56.427Z,7.10
2018-06-15T03:11:24.684Z,7.27
2018-06-15T03:13:53.703Z,7.63
2018-06-15T03:16:22.051Z,6.30
2018-06-15T03:18:51.082Z,7.23
2018-06-15T03:21:20.475Z,6.80
2018-06-15T03:23:48.738Z,6.73
2018-06-15T03:26:17.026Z,6.90
2018-06-15T03:28:45.259Z,6.80
2018-06-15T03:31:13.520Z,6.67
2018-06-15T03:33:41.780Z,6.53
2018-06-15T03:36:10.032Z,7.10
2018-06-15T03:38:38.301Z,6.57
2018-06-15T03:41:06.546Z,6.73
2018-06-15T03:43:35.558Z,6.27
2018-06-15T03:46:03.931Z,7.00
2018-06-15T03:48:32.146Z,6.67
2018-06-15T03:51:00.524Z,7.13
2018-06-15T03:53:29.541Z,6.77
2018-06-15T03:55:57.831Z,7.07
2018-06-15T03:58:26.879Z,7.83
2018-06-15T04:00:55.135Z,7.23
2018-06-15T04:03:23.402Z,7.13
2018-06-15T04:05:51.665Z,6.90
2018-06-15T04:08:19.937Z,7.00
2018-06-15T04:10:48.954Z,7.00
2018-06-15T04:13:17.234Z,7.00
2018-06-15T04:15:46.227Z,7.53
2018-06-15T04:18:14.478Z,7.20
2018-06-15T04:20:42.749Z,7.27
2018-06-15T04:23:11.770Z,7.90
2018-06-15T04:25:40.034Z,7.33
2018-06-15T04:28:08.307Z,6.67
2018-06-15T04:30:36.564Z,6.73
2018-06-15T04:33:05.590Z,6.50
2018-06-15T04:35:33.845Z,6.27
2018-06-15T04:38:02.097Z,6.73
2018-06-15T04:40:31.123Z,7.00
2018-06-15T04:42:59.393Z,7.00
2018-06-15T04:45:27.654Z,7.53
2018-06-15T04:47:55.940Z,7.70
2018-06-15T04:50:24.206Z,7.10
2018-06-15T04:52:52.460Z,7.23
2018-06-15T04:55:20.733Z,7.53
2018-06-15T04:57:48.980Z,7.30
2018-06-15T05:00:17.229Z,6.70
2018-06-15T05:02:45.498Z,7.17
2018-06-15T05:05:13.753Z,7.63
2018-06-15T05:07:42.875Z,6.77
2018-06-15T05:10:11.134Z,8.20
2018-06-15T05:12:39.403Z,7.17
2018-06-15T05:15:07.663Z,7.50
2018-06-15T05:17:36.677Z,7.53
2018-06-15T05:20:05.087Z,7.60
2018-06-15T05:22:34.791Z,6.70
2018-06-15T05:25:03.388Z,7.43
2018-06-15T05:27:31.642Z,7.47
2018-06-15T05:30:01.489Z,7.40
2018-06-15T05:32:29.738Z,7.43
2018-06-15T05:34:57.973Z,6.90
2018-06-15T05:37:26.252Z,6.90
2018-06-15T05:39:54.524Z,7.70
2018-06-15T05:42:22.856Z,7.03
2018-06-15T05:44:51.108Z,6.87
2018-06-15T05:47:19.355Z,7.20
2018-06-15T05:49:47.619Z,7.10
2018-06-15T05:52:15.904Z,7.37
2018-06-15T05:54:44.176Z,6.93
2018-06-15T05:57:12.433Z,6.60
2018-06-15T05:59:41.568Z,6.73
2018-06-15T06:02:09.803Z,6.80
2018-06-15T06:04:38.814Z,6.40
2018-06-15T06:07:07.275Z,6.50
2018-06-15T06:09:36.278Z,6.70
2018-06-15T06:12:05.395Z,7.10
2018-06-15T06:14:34.413Z,6.70
2018-06-15T06:17:02.654Z,6.67
2018-06-15T06:19:30.923Z,5.77
2018-06-15T06:21:59.175Z,6.60
2018-06-15T06:24:28.525Z,5.97
2018-06-15T06:26:56.788Z,6.47
2018-06-15T06:29:25.046Z,6.57
2018-06-15T06:31:54.074Z,7.13
2018-06-15T06:34:22.315Z,6.40
2018-06-15T06:36:50.649Z,7.37
2018-06-15T06:39:18.891Z,7.07
2018-06-15T06:41:47.368Z,6.50
2018-06-15T06:44:15.664Z,6.37
2018-06-15T06:46:43.913Z,6.83
2018-06-15T06:49:12.239Z,6.27
2018-06-15T06:51:40.445Z,6.03
2018-06-15T06:54:09.522Z,6.00
2018-06-15T06:56:37.749Z,5.97
2018-06-15T06:59:05.995Z,5.87
2018-06-15T07:01:34.255Z,5.53
2018-06-15T07:04:03.298Z,5.97
2018-06-15T07:06:31.567Z,6.33
2018-06-15T07:08:59.829Z,5.67
2018-06-15T07:11:28.113Z,5.53
2018-06-15T07:13:56.372Z,4.70
2018-06-15T07:16:24.694Z,4.73
2018-06-15T07:18:52.953Z,5.37
2018-06-15T07:21:21.232Z,4.57
2018-06-15T07:23:50.267Z,5.07
2018-06-15T07:26:19.275Z,4.97
2018-06-15T07:28:47.535Z,4.47
2018-06-15T07:31:16.576Z,4.63
2018-06-15T07:33:44.847Z,4.93
2018-06-15T07:36:13.116Z,4.73
2018-06-15T07:38:41.373Z,4.33
2018-06-15T07:41:10.693Z,4.80
2018-06-15T07:43:38.916Z,5.20
2018-06-15T07:46:08.042Z,5.83
2018-06-15T07:48:37.746Z,5.53
2018-06-15T07:51:06.002Z,6.20
2018-06-15T07:53:35.037Z,5.80
2018-06-15T07:56:03.279Z,5.60
2018-06-15T07:58:32.311Z,5.93
2018-06-15T08:01:00.568Z,5.90
2018-06-15T08:03:28.829Z,5.70
2018-06-15T08:05:57.091Z,5.60
2018-06-15T08:08:26.117Z,5.20
2018-06-15T08:10:54.378Z,5.23
2018-06-15T08:13:22.635Z,5.10
2018-06-15T08:15:51.682Z,5.77
2018-06-15T08:18:19.923Z,4.77
2018-06-15T08:20:48.181Z,5.13
2018-06-15T08:23:16.458Z,5.13
2018-06-15T08:25:45.463Z,5.50
2018-06-15T08:28:13.720Z,5.50
2018-06-15T08:30:42.946Z,4.87
2018-06-15T08:33:11.189Z,5.17
2018-06-15T08:35:39.451Z,4.73
2018-06-15T08:38:07.807Z,4.77
2018-06-15T08:40:36.051Z,4.97
2018-06-15T08:43:04.321Z,4.40
2018-06-15T08:45:32.569Z,4.90
2018-06-15T08:48:01.593Z,4.30
2018-06-15T08:50:29.830Z,4.03
2018-06-15T08:52:58.078Z,4.23
2018-06-15T08:55:26.369Z,4.50
2018-06-15T08:57:55.386Z,4.03
2018-06-15T09:00:23.641Z,4.00
2018-06-15T09:02:52.663Z,3.90
2018-06-15T09:05:20.926Z,4.07
2018-06-15T09:07:49.183Z,4.53
2018-06-15T09:10:18.193Z,4.30
2018-06-15T09:12:46.460Z,4.23
2018-06-15T09:15:15.490Z,3.80
2018-06-15T09:17:43.736Z,4.43
2018-06-15T09:20:12.768Z,3.60
2018-06-15T09:22:41.020Z,4.00
2018-06-15T09:25:09.274Z,4.00
2018-06-15T09:27:38.290Z,3.87
2018-06-15T09:30:06.557Z,4.00
2018-06-15T09:32:34.797Z,3.73
2018-06-15T09:35:03.062Z,3.90
2018-06-15T09:37:31.344Z,3.80
2018-06-15T09:39:59.603Z,3.30
2018-06-15T09:42:27.851Z,3.13
2018-06-15T09:44:56.108Z,2.83
2018-06-15T09:47:24.380Z,3.80
2018-06-15T09:49:52.858Z,3.50
2018-06-15T09:52:21.129Z,2.90
2018-06-15T09:54:50.149Z,5.13
2018-06-15T09:57:18.402Z,3.37
2018-06-15T09:59:46.664Z,3.30
2018-06-15T10:02:15.887Z,3.50
2018-06-15T10:04:44.130Z,3.17
2018-06-15T10:07:13.142Z,3.30
2018-06-15T10:09:41.419Z,4.07
2018-06-15T10:12:09.815Z,3.60
2018-06-15T10:14:38.082Z,3.33
2018-06-15T10:17:06.339Z,3.77
2018-06-15T10:19:34.606Z,3.10
2018-06-15T10:22:03.817Z,3.20
2018-06-15T10:24:32.059Z,3.20
2018-06-15T10:27:00.396Z,3.63
2018-06-15T10:29:28.677Z,3.90
2018-06-15T10:31:57.685Z,3.30
2018-06-15T10:34:25.938Z,3.70
2018-06-15T10:36:54.254Z,3.70
2018-06-15T10:39:22.589Z,3.70
2018-06-15T10:41:50.725Z,3.23
2018-06-15T10:44:19.758Z,3.17
2018-06-15T10:46:48.027Z,3.23
2018-06-15T10:49:16.282Z,3.37
2018-06-15T10:51:44.560Z,3.50
2018-06-15T10:54:12.808Z,2.70
2018-06-15T10:56:41.832Z,2.87
2018-06-15T10:59:10.089Z,2.90
2018-06-15T11:01:38.353Z,3.13
2018-06-15T11:04:07.379Z,3.00
2018-06-15T11:06:35.639Z,2.80
2018-06-15T11:09:03.912Z,2.80
2018-06-15T11:11:32.931Z,2.63
2018-06-15T11:14:01.174Z,2.80
2018-06-15T11:16:29.435Z,2.90
2018-06-15T11:18:58.468Z,3.27
2018-06-15T11:21:26.710Z,2.93
2018-06-15T11:23:54.963Z,2.70
2018-06-15T11:26:23.825Z,2.90
2018-06-15T11:28:52.428Z,2.70
2018-06-15T11:31:20.683Z,2.80
2018-06-15T11:33:48.967Z,2.90
2018-06-15T11:36:17.210Z,3.10
2018-06-15T11:38:45.578Z,2.60
2018-06-15T11:41:13.903Z,3.27
2018-06-15T11:43:42.850Z,2.70
2018-06-15T11:46:11.115Z,2.63
2018-06-15T11:48:39.371Z,2.60
2018-06-15T11:51:08.407Z,2.73
2018-06-15T11:53:36.652Z,2.50
2018-06-15T11:56:04.910Z,2.70
2018-06-15T11:58:33.939Z,2.70
2018-06-15T12:01:02.193Z,2.90
2018-06-15T12:03:31.196Z,3.00
2018-06-15T12:05:59.465Z,2.30
2018-06-15T12:08:27.704Z,2.60
2018-06-15T12:10:55.976Z,2.80
2018-06-15T12:13:24.239Z,2.70
2018-06-15T12:15:52.692Z,2.60
2018-06-15T12:18:20.944Z,2.87
2018-06-15T12:20:49.212Z,3.20
2018-06-15T12:23:17.472Z,2.57
2018-06-15T12:25:46.498Z,2.97
2018-06-15T12:28:14.743Z,2.80
2018-06-15T12:30:43.801Z,2.90
2018-06-15T12:33:12.042Z,3.13
2018-06-15T12:35:40.279Z,2.87
2018-06-15T12:38:08.567Z,3.20
2018-06-15T12:40:37.071Z,3.23
2018-06-15T12:43:05.307Z,3.27
2018-06-15T12:45:34.320Z,3.00
2018-06-15T12:48:02.590Z,3.03
2018-06-15T12:50:31.603Z,3.30
2018-06-15T12:52:59.865Z,3.33
2018-06-15T12:55:28.123Z,2.70
2018-06-15T12:57:57.161Z,3.00
2018-06-15T13:00:25.408Z,2.80
2018-06-15T13:02:53.675Z,2.90
2018-06-15T13:05:22.706Z,2.87
2018-06-15T13:07:50.942Z,3.37
2018-06-15T13:10:19.216Z,2.90
2018-06-15T13:12:48.231Z,3.00
2018-06-15T13:15:16.486Z,3.43
2018-06-15T13:17:44.742Z,2.97
2018-06-15T13:20:12.994Z,3.33
2018-06-15T13:22:41.248Z,3.07
2018-06-15T13:25:10.290Z,2.70
2018-06-15T13:27:39.304Z,2.50
2018-06-15T13:30:07.551Z,3.03
2018-06-15T13:32:35.818Z,3.03
2018-06-15T13:35:04.071Z,3.20
2018-06-15T13:37:32.355Z,3.17
2018-06-15T13:40:00.611Z,2.60
2018-06-15T13:42:28.864Z,2.90
2018-06-15T13:44:57.166Z,3.10
2018-06-15T13:47:25.414Z,2.70
2018-06-15T13:49:53.678Z,2.93
2018-06-15T13:52:21.930Z,3.80
2018-06-15T13:54:50.965Z,3.43
2018-06-15T13:57:19.220Z,3.70
2018-06-15T13:59:47.737Z,4.00
2018-06-15T14:02:15.990Z,3.60
2018-06-15T14:04:44.242Z,3.40
2018-06-15T14:07:12.580Z,3.40
2018-06-15T14:09:40.846Z,3.30
2018-06-15T14:12:09.148Z,3.10
2018-06-15T14:14:38.149Z,3.33
2018-06-15T14:17:07.172Z,3.17
2018-06-15T14:19:35.423Z,3.00
2018-06-15T14:22:04.460Z,3.07
2018-06-15T14:24:32.708Z,3.10
2018-06-15T14:27:00.974Z,3.63
2018-06-15T14:29:29.258Z,3.20
2018-06-15T14:31:58.420Z,3.17
2018-06-15T14:34:26.641Z,3.10
2018-06-15T14:36:54.890Z,3.70
2018-06-15T14:39:23.918Z,3.33
2018-06-15T14:41:52.190Z,3.40
2018-06-15T14:44:20.458Z,3.40
2018-06-15T14:46:48.721Z,3.07
2018-06-15T14:49:16.977Z,2.83
2018-06-15T14:51:45.698Z,3.00
2018-06-15T14:54:13.957Z,3.10
2018-06-15T14:56:42.324Z,3.20
2018-06-15T14:59:11.385Z,3.33
2018-06-15T15:01:39.739Z,3.40
2018-06-15T15:04:08.009Z,3.60
2018-06-15T15:06:36.259Z,3.27
2018-06-15T15:09:04.513Z,3.57
2018-06-15T15:11:33.546Z,3.23
2018-06-15T15:14:02.572Z,3.20
2018-06-15T15:16:30.834Z,2.83
2018-06-15T15:18:59.099Z,3.40
2018-06-15T15:21:27.363Z,2.93
2018-06-15T15:23:55.599Z,2.80
2018-06-15T15:26:24.007Z,3.10
2018-06-15T15:28:52.338Z,3.17
2018-06-15T15:31:21.384Z,3.13
2018-06-15T15:33:49.659Z,2.90
2018-06-15T15:36:17.972Z,3.10
2018-06-15T15:38:46.545Z,3.13
2018-06-15T15:41:14.782Z,3.43
2018-06-15T15:43:43.040Z,3.30
2018-06-15T15:46:11.337Z,3.00
2018-06-15T15:48:39.808Z,2.80
2018-06-15T15:51:08.063Z,3.30
2018-06-15T15:53:36.313Z,3.13
2018-06-15T15:56:04.584Z,3.30
2018-06-15T15:58:33.639Z,3.58
2018-06-15T16:01:01.895Z,3.13
2018-06-15T16:03:30.141Z,3.73
2018-06-15T16:05:59.170Z,3.50
2018-06-15T16:08:27.430Z,3.70
2018-06-15T16:10:55.683Z,3.23
2018-06-15T16:13:24.799Z,3.60
2018-06-15T16:15:53.045Z,3.37
2018-06-15T16:18:21.303Z,3.87
2018-06-15T16:20:49.572Z,3.40
2018-06-15T16:23:17.815Z,3.53
2018-06-15T16:25:46.080Z,3.97
2018-06-15T16:28:14.329Z,3.57
2018-06-15T16:30:42.601Z,3.60
2018-06-15T16:33:10.825Z,4.07
2018-06-15T16:35:39.072Z,3.47
2018-06-15T16:38:07.329Z,3.00
2018-06-15T16:40:36.343Z,3.50
2018-06-15T16:43:04.663Z,3.27
2018-06-15T16:45:32.867Z,3.63
2018-06-15T16:48:01.876Z,3.47
2018-06-15T16:50:30.145Z,3.00
2018-06-15T16:52:59.153Z,3.07
2018-06-15T16:55:27.399Z,3.77
2018-06-15T16:57:56.426Z,3.13
2018-06-15T17:00:24.686Z,3.30
2018-06-15T17:02:52.936Z,3.23
2018-06-15T17:05:21.956Z,3.17
2018-06-15T17:07:50.224Z,3.47
2018-06-15T17:10:18.487Z,3.30
2018-06-15T17:12:47.498Z,3.20
2018-06-15T17:15:15.765Z,3.63
2018-06-15T17:17:44.782Z,3.33
2018-06-15T17:20:13.055Z,3.13
2018-06-15T17:22:41.313Z,3.30
2018-06-15T17:25:09.573Z,3.40
2018-06-15T17:27:37.988Z,2.83
2018-06-15T17:30:06.242Z,2.97
2018-06-15T17:32:34.495Z,3.47
2018-06-15T17:35:03.540Z,3.60
2018-06-15T17:37:31.785Z,4.13
2018-06-15T17:40:00.043Z,5.20
2018-06-15T17:42:28.291Z,3.80
2018-06-15T17:44:56.551Z,3.60
2018-06-15T17:47:24.796Z,3.27
2018-06-15T17:49:53.167Z,3.30
2018-06-15T17:52:21.414Z,3.40
2018-06-15T17:54:50.441Z,3.20
2018-06-15T17:57:18.710Z,3.00
2018-06-15T17:59:47.013Z,3.30
2018-06-15T18:02:16.000Z,3.47
2018-06-15T18:04:44.237Z,2.93
2018-06-15T18:07:13.243Z,3.60
2018-06-15T18:09:41.510Z,3.03
2018-06-15T18:12:10.515Z,3.20
2018-06-15T18:14:38.766Z,3.00
2018-06-15T18:17:07.803Z,3.20
2018-06-15T18:19:36.071Z,3.30
2018-06-15T18:22:04.335Z,3.30
2018-06-15T18:24:32.594Z,3.10
2018-06-15T18:27:01.609Z,3.33
2018-06-15T18:29:29.846Z,3.70
2018-06-15T18:31:59.091Z,3.43
2018-06-15T18:34:27.346Z,3.43
2018-06-15T18:36:55.671Z,3.03
2018-06-15T18:39:24.171Z,3.37
2018-06-15T18:41:52.428Z,3.10
2018-06-15T18:44:20.675Z,3.00
2018-06-15T18:46:48.943Z,3.10
2018-06-15T18:49:17.197Z,3.37
2018-06-15T18:51:45.463Z,3.03
2018-06-15T18:54:14.542Z,3.40
2018-06-15T18:56:42.790Z,3.20
2018-06-15T18:59:11.051Z,3.17
2018-06-15T19:01:39.308Z,3.23
2018-06-15T19:04:07.739Z,3.27
2018-06-15T19:06:35.982Z,3.40
2018-06-15T19:09:04.236Z,3.33
2018-06-15T19:11:32.510Z,3.07
2018-06-15T19:14:00.747Z,3.07
2018-06-15T19:16:29.767Z,3.20
2018-06-15T19:18:58.043Z,3.30
2018-06-15T19:21:26.308Z,3.47
2018-06-15T19:23:54.596Z,3.77
2018-06-15T19:26:22.981Z,3.10
2018-06-15T19:28:51.273Z,3.37
2018-06-15T19:31:20.254Z,3.63
2018-06-15T19:33:48.530Z,3.40
2018-06-15T19:36:16.785Z,3.27
2018-06-15T19:38:45.697Z,3.10
2018-06-15T19:41:13.962Z,3.40
2018-06-15T19:43:42.434Z,3.67
2018-06-15T19:46:10.687Z,3.47
2018-06-15T19:48:39.700Z,3.40
2018-06-15T19:51:07.975Z,3.40
2018-06-15T19:53:36.232Z,3.83
2018-06-15T19:56:05.260Z,3.80
2018-06-15T19:58:33.736Z,3.73
2018-06-15T20:01:01.995Z,4.00
2018-06-15T20:03:30.239Z,3.87
2018-06-15T20:05:58.497Z,3.87
2018-06-15T20:08:26.752Z,4.13
2018-06-15T20:10:55.019Z,4.20
2018-06-15T20:13:23.269Z,3.90
2018-06-15T20:15:51.528Z,4.50
2018-06-15T20:18:20.561Z,3.60
2018-06-15T20:20:48.820Z,4.40
2018-06-15T20:23:17.093Z,4.10
2018-06-15T20:25:45.335Z,4.10
2018-06-15T20:28:14.455Z,3.97
2018-06-15T20:30:42.743Z,4.17
2018-06-15T20:33:11.008Z,4.20
2018-06-15T20:35:40.030Z,4.40
2018-06-15T20:38:08.272Z,4.50
2018-06-15T20:40:36.520Z,4.10
2018-06-15T20:43:05.664Z,4.00
2018-06-15T20:45:33.897Z,4.47
2018-06-15T20:48:02.903Z,3.87
2018-06-15T20:50:31.187Z,4.47
2018-06-15T20:52:59.482Z,4.37
2018-06-15T20:55:28.494Z,4.50
2018-06-15T20:57:56.755Z,5.00
2018-06-15T21:00:25.003Z,4.40
2018-06-15T21:02:53.268Z,4.20
2018-06-15T21:05:22.274Z,4.50
2018-06-15T21:07:50.528Z,4.33
2018-06-15T21:10:19.565Z,4.27
2018-06-15T21:12:47.829Z,4.77
2018-06-15T21:15:16.911Z,4.40
2018-06-15T21:17:45.160Z,4.53
2018-06-15T21:20:14.457Z,4.40
2018-06-15T21:22:42.720Z,4.43
2018-06-15T21:25:10.980Z,4.90
2018-06-15T21:27:39.240Z,4.67
2018-06-15T21:30:07.619Z,4.67
2018-06-15T21:32:35.907Z,4.43
2018-06-15T21:35:08.703Z,4.80
2018-06-15T21:37:38.278Z,4.87
2018-06-15T21:40:06.524Z,5.30
2018-06-15T21:42:34.942Z,5.03
2018-06-15T21:45:03.186Z,4.97
2018-06-15T21:47:31.447Z,4.67
2018-06-15T21:49:59.716Z,4.70
2018-06-15T21:52:27.979Z,4.90
2018-06-15T21:54:57.001Z,5.20
2018-06-15T21:57:25.272Z,4.77
2018-06-15T21:59:53.497Z,5.00
2018-06-15T22:02:21.799Z,5.40
2018-06-15T22:04:50.011Z,4.87
2018-06-15T22:07:18.308Z,5.03
2018-06-15T22:09:46.607Z,5.17
2018-06-15T22:12:14.927Z,4.90
2018-06-15T22:14:43.291Z,5.23
2018-06-15T22:17:11.575Z,4.83
2018-06-15T22:19:40.571Z,4.87
2018-06-15T22:22:08.839Z,4.97
2018-06-15T22:24:37.089Z,5.27
2018-06-15T22:27:06.132Z,4.60
2018-06-15T22:29:34.386Z,4.83
2018-06-15T22:32:02.705Z,4.73
2018-06-15T22:34:30.913Z,4.27
2018-06-15T22:36:59.166Z,4.73
2018-06-15T22:39:28.221Z,4.53
2018-06-15T22:41:56.477Z,5.03
2018-06-15T22:44:24.728Z,4.50
2018-06-15T22:46:53.756Z,5.13
2018-06-15T22:49:22.008Z,5.00
2018-06-15T22:51:50.282Z,4.60
2018-06-15T22:54:18.539Z,5.10
2018-06-15T22:56:47.577Z,5.00
2018-06-15T22:59:15.820Z,4.90
2018-06-15T23:01:44.112Z,4.83
2018-06-15T23:04:13.118Z,5.57
2018-06-15T23:06:42.144Z,5.00
2018-06-15T23:09:10.406Z,4.80
2018-06-15T23:11:39.435Z,4.70
2018-06-15T23:14:08.499Z,4.87
2018-06-15T23:16:36.976Z,4.77
2018-06-15T23:19:05.233Z,4.80
2018-06-15T23:21:33.475Z,4.93
2018-06-15T23:24:02.509Z,5.03
2018-06-15T23:26:30.822Z,5.43
2018-06-15T23:28:59.877Z,4.70
2018-06-15T23:31:28.123Z,5.60
2018-06-15T23:33:57.147Z,4.93
2018-06-15T23:36:25.678Z,4.97
2018-06-15T23:38:54.696Z,5.20
2018-06-15T23:41:23.199Z,5.60
2018-06-15T23:43:51.459Z,5.40
2018-06-15T23:46:19.719Z,4.83
2018-06-15T23:48:48.003Z,5.10
2018-06-15T23:51:16.318Z,4.57
2018-06-15T23:53:44.783Z,5.30
2018-06-15T23:56:13.040Z,5.10
2018-06-15T23:58:41.301Z,4.90
